createdAt,value
2023-03-06T00:01:11.597Z,3.50
2023-03-06T00:05:08.618Z,3.95
2023-03-06T00:10:08.350Z,3.30
2023-03-06T00:15:08.422Z,3.20
2023-03-06T00:20:08.495Z,4.75
2023-03-06T00:25:08.559Z,3.00
2023-03-06T00:30:08.641Z,3.45
2023-03-06T00:35:08.697Z,3.13
2023-03-06T00:40:08.720Z,2.67
2023-03-06T00:45:08.784Z,3.13
2023-03-06T00:50:08.884Z,3.60
2023-03-06T00:55:08.880Z,5.18
2023-03-06T01:00:08.996Z,4.25
2023-03-06T01:05:08.048Z,6.70
2023-03-06T01:10:08.175Z,6.18
2023-03-06T01:15:08.319Z,5.15
2023-03-06T01:20:08.426Z,5.50
2023-03-06T01:25:08.496Z,5.78
2023-03-06T01:30:08.770Z,5.50
2023-03-06T01:35:08.882Z,6.57
2023-03-06T01:40:08.938Z,5.88
2023-03-06T01:45:07.972Z,7.70
2023-03-06T01:50:08.027Z,9.50
2023-03-06T01:55:08.129Z,8.70
2023-03-06T02:00:08.174Z,8.20
2023-03-06T02:05:08.246Z,7.60
2023-03-06T02:10:08.313Z,8.85
2023-03-06T02:15:08.404Z,11.38
2023-03-06T02:20:18.482Z,0
2023-03-06T02:25:08.497Z,11.02
2023-03-06T02:30:08.529Z,8.95
2023-03-06T02:35:08.577Z,10.00
2023-03-06T02:40:08.630Z,9.50
2023-03-06T02:45:08.757Z,9.40
2023-03-06T02:50:08.791Z,10.27
2023-03-06T02:55:08.873Z,14.10
2023-03-06T03:00:08.919Z,11.80
2023-03-06T03:05:08.973Z,10.27
2023-03-06T03:10:08.026Z,10.77
2023-03-06T03:15:08.088Z,11.60
2023-03-06T03:20:08.162Z,15.65
2023-03-06T03:25:08.196Z,18.90
2023-03-06T03:30:08.301Z,15.00
2023-03-06T03:35:08.363Z,13.43
2023-03-06T03:40:08.467Z,15.15
2023-03-06T03:45:08.594Z,15.57
2023-03-06T03:50:08.675Z,15.15
2023-03-06T03:55:08.740Z,11.27
2023-03-06T04:00:08.893Z,12.15
2023-03-06T04:05:08.980Z,12.60
2023-03-06T04:10:08.148Z,13.88
2023-03-06T04:15:08.213Z,12.73
2023-03-06T04:20:08.225Z,11.65
2023-03-06T04:25:08.270Z,11.00
2023-03-06T04:30:08.341Z,8.68
2023-03-06T04:35:08.389Z,9.40
2023-03-06T04:40:08.427Z,12.75
2023-03-06T04:45:08.503Z,10.27
2023-03-06T04:50:08.601Z,10.30
2023-03-06T04:55:08.667Z,10.40
2023-03-06T05:00:08.691Z,10.50
2023-03-06T05:05:03.021Z,10.20
2023-03-06T05:10:02.212Z,11.10
2023-03-06T05:15:02.435Z,12.50
2023-03-06T05:20:02.611Z,11.18
2023-03-06T05:25:02.981Z,13.20
2023-03-06T05:30:02.118Z,10.40
2023-03-06T05:35:02.436Z,10.88
2023-03-06T05:40:02.628Z,10.90
2023-03-06T05:45:02.886Z,13.45
2023-03-06T05:50:03.078Z,12.63
2023-03-06T05:55:02.396Z,14.10
2023-03-06T06:00:02.805Z,13.88
2023-03-06T06:05:03.229Z,13.48
2023-03-06T06:10:03.893Z,12.55
2023-03-06T06:15:02.165Z,13.23
2023-03-06T06:20:02.431Z,16.33
2023-03-06T06:25:02.782Z,15.05
2023-03-06T06:30:03.060Z,15.70
2023-03-06T06:35:02.320Z,14.55
2023-03-06T06:40:02.697Z,15.20
2023-03-06T06:45:02.941Z,12.43
2023-03-06T06:50:02.169Z,13.13
2023-03-06T06:55:02.387Z,13.35
2023-03-06T07:00:02.822Z,14.20
2023-03-06T07:05:05.282Z,11.75
2023-03-06T07:10:02.899Z,12.52
2023-03-06T07:15:03.200Z,12.35
2023-03-06T07:20:02.425Z,10.57
2023-03-06T07:25:02.708Z,11.93
2023-03-06T07:30:02.895Z,15.90
2023-03-06T07:35:19.077Z,13.15
2023-03-06T07:40:02.152Z,9.90
2023-03-06T07:45:02.569Z,9.43
2023-03-06T07:50:02.767Z,11.02
2023-03-06T07:55:02.999Z,9.50
2023-03-06T08:00:02.370Z,9.05
2023-03-06T08:05:02.573Z,11.60
2023-03-06T08:10:02.912Z,11.80
2023-03-06T08:15:03.175Z,11.23
2023-03-06T08:20:02.527Z,9.60
2023-03-06T08:25:02.910Z,11.88
2023-03-06T08:30:02.246Z,10.70
2023-03-06T08:35:02.563Z,10.75
2023-03-06T08:40:02.923Z,10.85
2023-03-06T08:45:02.249Z,11.05
2023-03-06T08:50:02.583Z,10.85
2023-03-06T08:55:02.968Z,9.25
2023-03-06T09:00:02.393Z,9.55
2023-03-06T09:05:03.047Z,11.35
2023-03-06T09:10:02.374Z,10.25
2023-03-06T09:15:02.668Z,7.70
2023-03-06T09:20:02.847Z,7.03
2023-03-06T09:25:03.098Z,4.85
2023-03-06T09:30:02.416Z,4.57
2023-03-06T09:35:02.983Z,4.88
2023-03-06T09:40:02.301Z,4.22
2023-03-06T09:45:02.576Z,4.30
2023-03-06T09:50:04.854Z,5.78
2023-03-06T09:55:13.238Z,0
2023-03-06T10:00:04.415Z,5.40
2023-03-06T10:05:03.033Z,3.83
2023-03-06T10:10:02.370Z,5.63
2023-03-06T10:15:02.550Z,3.13
2023-03-06T10:20:02.863Z,3.00
2023-03-06T10:25:03.278Z,2.70
2023-03-06T10:30:12.500Z,0
2023-03-06T10:35:02.765Z,2.25
2023-03-06T10:40:02.985Z,4.72
2023-03-06T10:45:02.279Z,3.63
2023-03-06T10:50:02.611Z,7.32
2023-03-06T10:55:02.877Z,2.85
2023-03-06T11:00:03.076Z,2.38
2023-03-06T11:05:02.457Z,2.75
2023-03-06T11:10:02.656Z,5.55
2023-03-06T11:15:05.967Z,4.32
2023-03-06T11:20:12.229Z,0
2023-03-06T11:25:02.578Z,2.10
2023-03-06T11:30:02.657Z,2.42
2023-03-06T11:35:02.786Z,1.60
2023-03-06T11:40:02.932Z,2.10
2023-03-06T11:45:03.353Z,1.83
2023-03-06T11:50:02.509Z,1.50
2023-03-06T11:55:02.672Z,1.80
2023-03-06T12:00:03.026Z,1.48
2023-03-06T12:05:12.226Z,0
2023-03-06T12:10:02.543Z,1.60
2023-03-06T12:15:02.787Z,2.47
2023-03-06T12:20:03.087Z,1.48
2023-03-06T12:25:02.472Z,1.60
2023-03-06T12:30:02.895Z,1.45
2023-03-06T12:35:04.763Z,1.40
2023-03-06T12:40:03.399Z,1.25
2023-03-06T12:45:02.768Z,1.40
2023-03-06T12:50:03.069Z,1.42
2023-03-06T12:55:02.425Z,1.27
2023-03-06T13:00:02.573Z,2.78
2023-03-06T13:05:12.918Z,0
2023-03-06T13:10:03.112Z,1.23
2023-03-06T13:15:02.287Z,1.95
2023-03-06T13:20:03.235Z,1.10
2023-03-06T13:25:11.260Z,1.38
2023-03-06T13:30:03.098Z,1.20
2023-03-06T13:35:03.690Z,1.08
2023-03-06T13:40:02.976Z,1.33
2023-03-06T13:45:03.206Z,2.15
2023-03-06T13:50:02.535Z,1.30
2023-03-06T13:55:03.348Z,1.80
2023-03-06T14:00:13.070Z,0
2023-03-06T14:05:02.604Z,1.30
2023-03-06T14:10:03.534Z,2.25
2023-03-06T14:15:04.740Z,1.40
2023-03-06T14:20:03.231Z,1.40
2023-03-06T14:25:03.060Z,1.33
2023-03-06T14:30:02.719Z,1.70
2023-03-06T14:35:04.446Z,1.95
2023-03-06T14:40:04.617Z,1.73
2023-03-06T14:45:02.930Z,1.58
2023-03-06T14:50:13.826Z,0
2023-03-06T14:55:03.674Z,1.70
2023-03-06T15:00:03.158Z,1.60
2023-03-06T15:05:02.641Z,1.63
2023-03-06T15:10:03.063Z,1.65
2023-03-06T15:15:03.484Z,2.03
2023-03-06T15:20:03.612Z,1.50
2023-03-06T15:25:03.412Z,1.80
2023-03-06T15:30:02.820Z,2.00
2023-03-06T15:35:04.098Z,3.50
2023-03-06T15:40:03.185Z,5.40
2023-03-06T15:45:02.599Z,12.45
2023-03-06T15:50:04.116Z,9.77
2023-03-06T15:55:02.478Z,9.73
2023-03-06T16:00:03.233Z,7.80
2023-03-06T16:05:03.897Z,7.18
2023-03-06T16:10:03.607Z,5.10
2023-03-06T16:15:02.856Z,4.40
2023-03-06T16:20:03.477Z,5.15
2023-03-06T16:25:03.224Z,4.10
2023-03-06T16:30:02.699Z,4.50
2023-03-06T16:35:04.116Z,6.93
2023-03-06T16:40:02.588Z,7.28
2023-03-06T16:45:03.339Z,6.38
2023-03-06T16:50:03.556Z,10.80
2023-03-06T16:55:03.229Z,9.35
2023-03-06T17:00:02.836Z,14.40
2023-03-06T17:05:03.175Z,10.13
2023-03-06T17:10:02.784Z,10.90
2023-03-06T17:15:03.111Z,15.30
2023-03-06T17:20:02.523Z,15.10
2023-03-06T17:25:06.122Z,24.40
2023-03-06T17:30:02.542Z,20.00
2023-03-06T17:35:03.323Z,23.75
2023-03-06T17:40:03.696Z,26.25
2023-03-06T17:45:03.128Z,26.20
2023-03-06T17:50:03.060Z,29.25
2023-03-06T17:55:02.460Z,28.75
2023-03-06T18:00:02.987Z,27.52
2023-03-06T18:05:02.543Z,26.65
2023-03-06T18:10:06.425Z,27.05
2023-03-06T18:15:02.979Z,29.65
2023-03-06T18:20:02.799Z,27.38
2023-03-06T18:25:03.233Z,31.80
2023-03-06T18:30:03.419Z,29.92
2023-03-06T18:35:03.004Z,28.90
2023-03-06T18:40:02.632Z,27.42
2023-03-06T18:45:03.320Z,29.77
2023-03-06T18:50:02.688Z,27.13
2023-03-06T18:55:03.263Z,33.90
2023-03-06T19:00:03.189Z,46.65
2023-03-06T19:05:03.246Z,47.33
2023-03-06T19:10:03.508Z,38.03
2023-03-06T19:15:02.734Z,36.83
2023-03-06T19:20:03.292Z,36.97
2023-03-06T19:25:06.888Z,38.30
2023-03-06T19:30:03.222Z,35.45
2023-03-06T19:35:03.212Z,42.45
2023-03-06T19:40:03.126Z,38.80
2023-03-06T19:45:02.487Z,40.15
2023-03-06T19:50:02.869Z,34.97
2023-03-06T19:55:04.593Z,41.95
2023-03-06T20:00:03.684Z,38.40
2023-03-06T20:05:03.135Z,42.70
2023-03-06T20:10:03.074Z,37.17
2023-03-06T20:15:02.477Z,38.75
2023-03-06T20:20:05.183Z,38.67
2023-03-06T20:25:02.879Z,39.08
2023-03-06T20:30:03.616Z,37.38
2023-03-06T20:35:03.103Z,29.98
2023-03-06T20:40:02.571Z,37.40
2023-03-06T20:45:03.276Z,36.03
2023-03-06T20:50:03.155Z,38.10
2023-03-06T20:55:03.028Z,33.22
2023-03-06T21:00:02.575Z,35.83
2023-03-06T21:05:02.904Z,32.33
2023-03-06T21:10:02.849Z,34.60
2023-03-06T21:15:03.250Z,35.45
2023-03-06T21:20:02.658Z,31.58
2023-03-06T21:25:03.082Z,33.92
2023-03-06T21:30:02.807Z,35.92
2023-03-06T21:35:03.406Z,30.33
2023-03-06T21:40:02.843Z,31.88
2023-03-06T21:45:03.267Z,33.60
2023-03-06T21:50:02.866Z,35.15
2023-03-06T21:55:03.910Z,27.67
2023-03-06T22:00:03.397Z,32.40
2023-03-06T22:05:22.365Z,32.40
2023-03-06T22:10:08.429Z,30.13
2023-03-06T22:15:08.455Z,31.70
2023-03-06T22:20:08.536Z,34.78
2023-03-06T22:25:08.596Z,31.05
2023-03-06T22:30:08.680Z,33.08
2023-03-06T22:35:08.910Z,29.25
2023-03-06T22:40:08.951Z,28.05
2023-03-06T22:45:07.985Z,29.38
2023-03-06T22:50:08.027Z,32.03
2023-03-06T22:55:08.115Z,23.90
2023-03-06T23:00:08.227Z,25.35
2023-03-06T23:05:08.269Z,26.55
2023-03-06T23:10:08.322Z,25.60
2023-03-06T23:15:08.433Z,26.13
2023-03-06T23:20:08.517Z,24.05
2023-03-06T23:25:08.580Z,23.77
2023-03-06T23:30:08.646Z,21.08
2023-03-06T23:35:08.730Z,21.55
2023-03-06T23:40:08.844Z,17.98
2023-03-06T23:45:08.911Z,17.10
2023-03-06T23:50:08.987Z,16.58
2023-03-06T23:55:08.081Z,14.85
